Time;durP1;ratioP1;P1;durP2;ratioP2;P2;SDS_P1;SDS_P2;PMS_P1;PMS_P2;Temp;Humidity;BMP_temperature;BMP_pressure;BME280_temperature;BME280_humidity;BME280_pressure;Samples;Min_cycle;Max_cycle;Signal;HPM_P1;HPM_P2
2021/04/14 00:00:44;;;;;;;8.27;4.45;;;;;;;;;;5095308;28;20217;-55
2021/04/14 00:03:23;;;;;;;10.20;4.63;;;;;;;;;;5095812;28;20202;-58
2021/04/14 00:05:50;;;;;;;8.55;3.90;;;;;;;;;;5093948;28;20221;-53
2021/04/14 00:08:17;;;;;;;7.75;4.68;;;;;;;;;;5095344;28;20210;-58
2021/04/14 00:10:52;;;;;;;12.27;4.30;;;;;;;;;;5095737;28;20205;-58
2021/04/14 00:13:20;;;;;;;7.95;4.50;;;;;;;;;;5095077;28;20223;-53
2021/04/14 00:15:48;;;;;;;15.00;5.57;;;;;;;;;;5094533;28;20252;-57
2021/04/14 00:18:33;;;;;;;10.73;5.10;;;;;;;;;;5094249;28;20226;-57
2021/04/14 00:21:01;;;;;;;8.63;4.93;;;;;;;;;;5111028;28;20307;-57
2021/04/14 00:23:27;;;;;;;9.02;4.85;;;;;;;;;;5095417;28;20209;-56
2021/04/14 00:26:01;;;;;;;13.55;6.43;;;;;;;;;;5075801;28;20237;-55
2021/04/14 00:28:28;;;;;;;8.02;4.35;;;;;;;;;;5074805;28;20202;-53
2021/04/14 00:30:55;;;;;;;8.45;5.20;;;;;;;;;;5074004;28;20193;-59
2021/04/14 00:36:26;;;;;;;15.00;5.57;;;;;;;;;;5074685;28;20260;-61
2021/04/14 00:38:52;;;;;;;12.07;4.70;;;;;;;;;;5074878;28;20210;-55
2021/04/14 00:41:25;;;;;;;7.45;5.00;;;;;;;;;;5081577;28;20209;-52
2021/04/14 00:43:52;;;;;;;9.85;5.00;;;;;;;;;;5079056;28;20416;-57
2021/04/14 00:46:18;;;;;;;16.55;5.85;;;;;;;;;;5074955;28;20232;-57
2021/04/14 00:51:49;;;;;;;15.73;6.43;;;;;;;;;;5068527;28;20299;-62
2021/04/14 00:54:16;;;;;;;11.23;6.03;;;;;;;;;;5075259;28;20198;-58
2021/04/14 00:57:05;;;;;;;9.38;5.70;;;;;;;;;;5075046;28;20237;-49
2021/04/14 00:59:32;;;;;;;8.05;4.82;;;;;;;;;;5074721;28;20822;-58
2021/04/14 01:01:59;;;;;;;12.02;5.60;;;;;;;;;;5074680;28;20195;-54
2021/04/14 01:04:36;;;;;;;8.50;5.72;;;;;;;;;;5074990;28;20289;-56
2021/04/14 01:07:03;;;;;;;13.15;5.13;;;;;;;;;;5075792;28;20197;-58
2021/04/14 01:09:30;;;;;;;7.80;5.05;;;;;;;;;;5095133;28;20210;-58
2021/04/14 01:11:58;;;;;;;10.85;4.95;;;;;;;;;;5079256;28;20218;-59
2021/04/14 01:14:25;;;;;;;11.68;5.60;;;;;;;;;;5074706;28;20230;-49
2021/04/14 01:16:52;;;;;;;8.75;5.30;;;;;;;;;;5078321;28;20249;-56
2021/04/14 01:19:21;;;;;;;9.40;5.00;;;;;;;;;;5078864;28;20203;-57
2021/04/14 01:21:49;;;;;;;12.52;5.63;;;;;;;;;;5090634;28;20194;-56
2021/04/14 01:24:17;;;;;;;12.15;5.20;;;;;;;;;;5096703;28;20213;-52
2021/04/14 01:27:00;;;;;;;13.02;6.25;;;;;;;;;;5098372;28;20202;-55
2021/04/14 01:29:27;;;;;;;9.80;6.43;;;;;;;;;;5097831;28;20284;-53
2021/04/14 01:31:53;;;;;;;14.77;7.40;;;;;;;;;;5098510;28;20267;-56
2021/04/14 01:34:29;;;;;;;8.57;6.28;;;;;;;;;;5091919;28;20209;-53
2021/04/14 01:36:57;;;;;;;13.10;7.40;;;;;;;;;;5098217;28;20234;-53
2021/04/14 01:39:24;;;;;;;9.90;6.80;;;;;;;;;;5098289;28;20214;-58
2021/04/14 01:41:50;;;;;;;14.07;5.82;;;;;;;;;;5098259;28;20194;-55
2021/04/14 01:44:17;;;;;;;8.45;5.40;;;;;;;;;;5098165;28;20220;-58
2021/04/14 01:46:45;;;;;;;8.25;5.65;;;;;;;;;;5098004;28;20181;-53
2021/04/14 01:49:13;;;;;;;9.73;5.78;;;;;;;;;;5097385;28;20345;-52
2021/04/14 01:51:40;;;;;;;12.90;5.50;;;;;;;;;;5087743;28;20253;-62
2021/04/14 01:54:10;;;;;;;11.68;5.10;;;;;;;;;;5078342;28;20226;-52
2021/04/14 01:56:38;;;;;;;14.23;5.30;;;;;;;;;;5074515;28;20233;-51
2021/04/14 01:59:06;;;;;;;9.65;5.18;;;;;;;;;;5089223;28;20206;-52
2021/04/14 02:01:42;;;;;;;11.10;5.55;;;;;;;;;;5086328;28;20210;-53
2021/04/14 02:04:08;;;;;;;15.73;5.78;;;;;;;;;;5077818;28;20462;-57
2021/04/14 02:06:35;;;;;;;7.93;5.20;;;;;;;;;;5078119;28;20205;-53
2021/04/14 02:09:05;;;;;;;9.30;5.28;;;;;;;;;;5065449;28;20228;-53
2021/04/14 02:11:33;;;;;;;16.83;5.43;;;;;;;;;;5098115;28;20242;-60
2021/04/14 02:13:59;;;;;;;6.80;5.18;;;;;;;;;;5095168;28;20205;-60
2021/04/14 02:16:28;;;;;;;8.20;5.45;;;;;;;;;;5097548;28;20237;-53
2021/04/14 02:18:54;;;;;;;8.48;4.45;;;;;;;;;;5093110;28;20205;-56
2021/04/14 02:21:22;;;;;;;8.55;4.63;;;;;;;;;;5097438;28;20194;-54
2021/04/14 02:24:20;;;;;;;6.55;4.28;;;;;;;;;;5097931;28;20256;-52
2021/04/14 02:26:50;;;;;;;18.25;6.95;;;;;;;;;;5081315;28;20222;-52
2021/04/14 02:29:18;;;;;;;6.50;4.00;;;;;;;;;;5078942;28;20183;-56
2021/04/14 02:31:58;;;;;;;7.25;4.13;;;;;;;;;;5094458;28;20189;-56
2021/04/14 02:34:25;;;;;;;8.18;4.82;;;;;;;;;;5057390;28;20199;-54
2021/04/14 02:36:52;;;;;;;6.35;3.60;;;;;;;;;;5057407;28;20219;-50
2021/04/14 02:39:42;;;;;;;7.55;4.63;;;;;;;;;;5057399;28;20212;-49
2021/04/14 02:42:10;;;;;;;13.55;4.38;;;;;;;;;;5057565;28;20207;-56
2021/04/14 02:44:37;;;;;;;5.72;3.13;;;;;;;;;;5057619;28;20215;-54
2021/04/14 02:47:03;;;;;;;7.68;4.13;;;;;;;;;;5057246;28;20207;-57
2021/04/14 02:49:32;;;;;;;8.45;3.92;;;;;;;;;;5040452;28;21053;-58
2021/04/14 02:52:05;;;;;;;8.43;3.95;;;;;;;;;;5057846;28;20243;-53
2021/04/14 02:54:32;;;;;;;11.60;4.88;;;;;;;;;;5057822;28;20195;-54
2021/04/14 02:56:59;;;;;;;7.90;4.47;;;;;;;;;;5057364;28;20234;-58
2021/04/14 03:02:30;;;;;;;8.25;5.35;;;;;;;;;;5093745;28;20269;-53
2021/04/14 03:04:56;;;;;;;5.20;4.03;;;;;;;;;;5097177;28;20217;-52
2021/04/14 03:07:55;;;;;;;6.45;4.45;;;;;;;;;;5096687;28;20194;-55
2021/04/14 03:10:24;;;;;;;6.53;4.43;;;;;;;;;;5076916;28;20242;-59
2021/04/14 03:12:51;;;;;;;9.50;4.65;;;;;;;;;;5076838;28;20191;-53
2021/04/14 03:15:38;;;;;;;8.32;4.50;;;;;;;;;;5076925;28;20241;-57
2021/04/14 03:18:06;;;;;;;16.58;5.43;;;;;;;;;;5090596;28;20230;-57
2021/04/14 03:20:33;;;;;;;13.07;5.65;;;;;;;;;;5097572;28;20210;-56
2021/04/14 03:23:37;;;;;;;8.48;5.10;;;;;;;;;;5097167;28;20272;-53
2021/04/14 03:26:04;;;;;;;8.82;5.57;;;;;;;;;;5095419;28;20235;-52
2021/04/14 03:28:31;;;;;;;8.57;4.82;;;;;;;;;;5097356;28;20201;-52
2021/04/14 03:31:08;;;;;;;8.82;4.35;;;;;;;;;;5096395;28;20206;-49
2021/04/14 03:33:36;;;;;;;5.55;3.97;;;;;;;;;;5096133;28;20206;-52
2021/04/14 03:36:03;;;;;;;11.77;4.70;;;;;;;;;;5096605;28;20201;-56
2021/04/14 03:38:30;;;;;;;11.20;5.43;;;;;;;;;;5095965;28;20210;-59
2021/04/14 03:40:57;;;;;;;12.52;4.18;;;;;;;;;;5096187;28;20213;-50
2021/04/14 03:43:24;;;;;;;8.90;4.47;;;;;;;;;;5095934;28;20279;-55
2021/04/14 03:46:02;;;;;;;8.10;4.65;;;;;;;;;;5096588;28;20186;-50
2021/04/14 03:48:29;;;;;;;7.35;4.05;;;;;;;;;;5096389;28;20208;-54
2021/04/14 03:50:58;;;;;;;7.28;4.30;;;;;;;;;;5096618;28;20202;-50
2021/04/14 03:53:38;;;;;;;9.73;4.30;;;;;;;;;;5096921;28;20193;-54
2021/04/14 03:56:06;;;;;;;10.02;5.55;;;;;;;;;;5096585;28;20259;-50
2021/04/14 03:58:34;;;;;;;13.40;4.75;;;;;;;;;;5096707;28;20209;-51
2021/04/14 04:01:07;;;;;;;6.75;4.65;;;;;;;;;;5096299;28;20202;-53
2021/04/14 04:03:38;;;;;;;10.85;5.28;;;;;;;;;;5103910;28;20185;-55
2021/04/14 04:06:29;;;;;;;14.88;6.45;;;;;;;;;;5096291;28;20174;-53
2021/04/14 04:08:56;;;;;;;10.45;3.95;;;;;;;;;;5096570;28;20209;-60
2021/04/14 04:11:24;;;;;;;8.90;3.92;;;;;;;;;;5096046;28;20214;-55
2021/04/14 04:14:09;;;;;;;9.32;4.32;;;;;;;;;;5096041;28;20206;-56
2021/04/14 04:16:36;;;;;;;7.53;4.30;;;;;;;;;;5096457;28;20229;-56
2021/04/14 04:19:03;;;;;;;15.48;6.13;;;;;;;;;;5095736;28;20204;-54
2021/04/14 04:24:35;;;;;;;7.13;4.32;;;;;;;;;;5085713;28;20263;-54
2021/04/14 04:27:02;;;;;;;5.40;4.03;;;;;;;;;;5090693;28;20211;-56
2021/04/14 04:29:34;;;;;;;7.30;3.50;;;;;;;;;;5092651;28;20201;-51
2021/04/14 04:32:18;;;;;;;8.43;4.53;;;;;;;;;;5094086;28;20205;-57
2021/04/14 04:35:04;;;;;;;6.43;4.30;;;;;;;;;;5068487;28;20206;-52
2021/04/14 04:37:32;;;;;;;7.88;4.55;;;;;;;;;;5075310;28;20503;-56
2021/04/14 04:40:00;;;;;;;12.45;4.68;;;;;;;;;;5075774;28;20195;-56
2021/04/14 04:42:49;;;;;;;8.25;3.45;;;;;;;;;;5075815;28;20202;-58
2021/04/14 04:45:17;;;;;;;5.72;3.55;;;;;;;;;;5091123;28;20233;-54
2021/04/14 04:47:44;;;;;;;8.88;3.70;;;;;;;;;;5096220;28;20198;-55
2021/04/14 04:50:27;;;;;;;6.60;3.60;;;;;;;;;;5097530;28;20266;-57
2021/04/14 04:52:55;;;;;;;10.25;4.55;;;;;;;;;;5097973;28;20221;-54
2021/04/14 04:55:23;;;;;;;15.65;3.80;;;;;;;;;;5099731;28;20240;-55
2021/04/14 04:58:11;;;;;;;6.57;3.78;;;;;;;;;;5099595;28;20189;-50
2021/04/14 05:00:39;;;;;;;8.80;3.92;;;;;;;;;;5097495;28;20226;-55
2021/04/14 05:03:06;;;;;;;12.35;4.50;;;;;;;;;;5100064;28;20194;-61
2021/04/14 05:05:35;;;;;;;5.57;3.20;;;;;;;;;;5099622;28;20212;-59
2021/04/14 05:08:02;;;;;;;7.45;3.70;;;;;;;;;;5099726;28;20246;-59
2021/04/14 05:10:37;;;;;;;10.43;4.28;;;;;;;;;;5098989;28;20206;-57
2021/04/14 05:13:04;;;;;;;9.90;4.82;;;;;;;;;;5099880;28;20186;-55
2021/04/14 05:15:33;;;;;;;9.23;4.15;;;;;;;;;;5099226;28;20214;-57
2021/04/14 05:18:00;;;;;;;8.40;4.55;;;;;;;;;;5098892;28;20206;-56
2021/04/14 05:20:27;;;;;;;12.05;5.15;;;;;;;;;;5099168;28;20217;-57
2021/04/14 05:23:05;;;;;;;14.82;4.80;;;;;;;;;;5098617;28;20186;-56
2021/04/14 05:25:32;;;;;;;8.18;4.63;;;;;;;;;;5098939;28;20200;-55
2021/04/14 05:28:05;;;;;;;8.93;4.80;;;;;;;;;;5098705;28;20213;-56
2021/04/14 05:30:33;;;;;;;9.02;4.95;;;;;;;;;;5098774;28;20208;-61
2021/04/14 05:33:00;;;;;;;10.73;5.20;;;;;;;;;;5098093;28;20232;-56
2021/04/14 05:35:27;;;;;;;7.82;5.20;;;;;;;;;;5098617;28;20218;-59
2021/04/14 05:37:55;;;;;;;10.68;4.82;;;;;;;;;;5081212;28;20257;-61
2021/04/14 05:40:23;;;;;;;9.75;5.05;;;;;;;;;;5098220;28;20190;-53
2021/04/14 05:42:50;;;;;;;11.38;5.15;;;;;;;;;;5098124;28;20202;-54
2021/04/14 05:45:21;;;;;;;9.93;4.28;;;;;;;;;;5098259;28;20204;-57
2021/04/14 05:47:47;;;;;;;8.38;4.30;;;;;;;;;;5095720;28;20219;-58
2021/04/14 05:50:16;;;;;;;10.98;5.90;;;;;;;;;;5097829;28;20228;-57
2021/04/14 05:52:44;;;;;;;9.02;4.70;;;;;;;;;;5117357;28;20269;-60
2021/04/14 05:55:12;;;;;;;6.32;3.85;;;;;;;;;;5113378;28;20289;-59
2021/04/14 05:58:06;;;;;;;8.60;4.78;;;;;;;;;;5097680;28;20232;-57
2021/04/14 06:00:36;;;;;;;13.70;5.13;;;;;;;;;;5114186;28;20211;-57
2021/04/14 06:03:15;;;;;;;7.22;3.80;;;;;;;;;;5099962;28;20190;-51
2021/04/14 06:08:45;;;;;;;10.65;4.85;;;;;;;;;;5097616;28;20282;-55
2021/04/14 06:11:12;;;;;;;15.65;5.60;;;;;;;;;;5097266;28;20205;-55
2021/04/14 06:14:14;;;;;;;9.80;5.22;;;;;;;;;;5097201;28;20267;-53
2021/04/14 06:16:41;;;;;;;9.35;4.93;;;;;;;;;;5083339;28;20237;-61
2021/04/14 06:19:08;;;;;;;8.45;4.65;;;;;;;;;;5076627;28;20225;-62
2021/04/14 06:21:35;;;;;;;9.05;4.20;;;;;;;;;;5077185;28;20250;-59
2021/04/14 06:24:02;;;;;;;7.70;4.38;;;;;;;;;;5070286;28;20196;-61
2021/04/14 06:26:36;;;;;;;8.88;5.75;;;;;;;;;;5093696;28;20197;-59
2021/04/14 06:29:35;;;;;;;16.80;5.65;;;;;;;;;;5085797;28;20199;-59
2021/04/14 06:32:07;;;;;;;7.85;4.85;;;;;;;;;;5092453;28;20221;-57
2021/04/14 06:34:33;;;;;;;8.30;4.38;;;;;;;;;;5097139;28;20202;-59
2021/04/14 06:37:29;;;;;;;11.32;5.45;;;;;;;;;;5096872;28;20242;-61
2021/04/14 06:40:16;;;;;;;11.68;5.43;;;;;;;;;;5082977;28;20257;-59
2021/04/14 06:42:51;;;;;;;13.05;5.20;;;;;;;;;;5101644;28;20211;-59
2021/04/14 06:45:19;;;;;;;10.65;4.57;;;;;;;;;;5116337;28;20189;-59
2021/04/14 06:47:55;;;;;;;7.68;5.10;;;;;;;;;;5116762;28;20227;-60
2021/04/14 06:50:35;;;;;;;9.40;4.68;;;;;;;;;;5116987;28;20185;-59
2021/04/14 06:53:10;;;;;;;12.07;5.30;;;;;;;;;;5116856;28;20196;-55
2021/04/14 06:55:41;;;;;;;8.63;5.43;;;;;;;;;;5116764;28;20197;-61
2021/04/14 06:58:19;;;;;;;7.57;5.32;;;;;;;;;;5116236;28;20269;-62
2021/04/14 07:00:47;;;;;;;6.47;5.10;;;;;;;;;;5116034;28;20193;-58
2021/04/14 07:03:18;;;;;;;17.75;5.57;;;;;;;;;;5115599;28;20197;-61
2021/04/14 07:05:46;;;;;;;8.75;5.25;;;;;;;;;;5095248;28;20247;-55
2021/04/14 07:08:19;;;;;;;7.30;5.30;;;;;;;;;;5089045;28;20257;-54
2021/04/14 07:10:52;;;;;;;8.48;5.80;;;;;;;;;;5094852;28;20198;-59
2021/04/14 07:13:19;;;;;;;7.85;5.13;;;;;;;;;;5094988;28;20194;-57
2021/04/14 07:15:46;;;;;;;8.55;5.30;;;;;;;;;;5095019;28;20234;-56
2021/04/14 07:18:42;;;;;;;9.07;5.40;;;;;;;;;;5091538;28;20250;-60
2021/04/14 07:21:13;;;;;;;12.40;5.60;;;;;;;;;;5096081;28;20197;-57
2021/04/14 07:23:46;;;;;;;13.10;4.68;;;;;;;;;;5093732;28;20198;-59
2021/04/14 07:26:18;;;;;;;8.77;5.40;;;;;;;;;;5094769;28;20202;-59
2021/04/14 07:29:22;;;;;;;8.93;5.55;;;;;;;;;;5094759;28;20201;-57
2021/04/14 07:31:52;;;;;;;16.17;6.88;;;;;;;;;;5095080;28;20202;-56
2021/04/14 07:34:25;;;;;;;8.00;5.32;;;;;;;;;;5094619;28;20213;-52
2021/04/14 07:36:56;;;;;;;7.50;4.30;;;;;;;;;;5100458;28;20235;-61
2021/04/14 07:39:27;;;;;;;6.15;4.45;;;;;;;;;;5091365;28;20298;-62
2021/04/14 07:42:02;;;;;;;12.32;6.03;;;;;;;;;;5094685;28;20194;-58
2021/04/14 07:44:47;;;;;;;13.45;6.30;;;;;;;;;;5094748;28;20201;-61
2021/04/14 07:47:22;;;;;;;13.07;5.35;;;;;;;;;;5095070;28;20198;-61
2021/04/14 07:49:58;;;;;;;8.70;4.90;;;;;;;;;;5094229;28;20193;-58
2021/04/14 07:52:26;;;;;;;7.30;4.75;;;;;;;;;;5083859;28;20193;-56
2021/04/14 07:54:56;;;;;;;9.68;5.25;;;;;;;;;;5094363;28;20190;-60
2021/04/14 07:57:42;;;;;;;11.93;5.82;;;;;;;;;;5104680;28;20233;-58
2021/04/14 08:00:10;;;;;;;11.27;5.97;;;;;;;;;;5075242;28;20226;-58
2021/04/14 08:02:37;;;;;;;10.20;7.25;;;;;;;;;;5074732;28;20203;-54
2021/04/14 08:05:22;;;;;;;18.10;5.32;;;;;;;;;;5077802;28;20206;-57
2021/04/14 08:07:49;;;;;;;8.82;4.95;;;;;;;;;;5084731;28;20290;-60
2021/04/14 08:10:17;;;;;;;10.25;5.32;;;;;;;;;;5092517;28;20220;-61
2021/04/14 08:13:00;;;;;;;9.88;4.68;;;;;;;;;;5111003;28;20205;-58
2021/04/14 08:15:29;;;;;;;9.80;4.30;;;;;;;;;;5095103;28;20225;-60
2021/04/14 08:18:08;;;;;;;8.73;4.80;;;;;;;;;;5093408;28;20205;-55
2021/04/14 08:20:42;;;;;;;9.07;5.05;;;;;;;;;;5093349;28;20198;-57
2021/04/14 08:23:14;;;;;;;5.40;3.25;;;;;;;;;;5113841;28;20214;-56
2021/04/14 08:25:46;;;;;;;5.22;2.78;;;;;;;;;;5087891;28;20226;-54
2021/04/14 08:28:44;;;;;;;6.95;3.70;;;;;;;;;;5072686;28;20198;-63
2021/04/14 08:31:13;;;;;;;8.88;4.22;;;;;;;;;;5088310;28;20313;-53
2021/04/14 08:33:40;;;;;;;8.55;3.78;;;;;;;;;;5098840;28;20202;-55
2021/04/14 08:36:13;;;;;;;9.00;5.17;;;;;;;;;;5092583;28;20221;-55
2021/04/14 08:38:41;;;;;;;6.95;4.07;;;;;;;;;;5093150;28;20464;-59
2021/04/14 08:41:19;;;;;;;10.02;3.90;;;;;;;;;;5086560;28;20214;-52
2021/04/14 08:43:54;;;;;;;7.47;3.92;;;;;;;;;;5085515;28;20206;-51
2021/04/14 08:46:26;;;;;;;10.43;4.43;;;;;;;;;;5079299;28;20210;-61
2021/04/14 08:48:56;;;;;;;8.47;4.10;;;;;;;;;;5064005;28;20453;-55
2021/04/14 08:51:26;;;;;;;4.77;2.23;;;;;;;;;;5078364;28;20532;-58
2021/04/14 08:53:55;;;;;;;8.30;3.40;;;;;;;;;;5075556;28;20508;-61
2021/04/14 08:56:24;;;;;;;10.00;4.43;;;;;;;;;;5071716;28;20503;-58
2021/04/14 08:59:08;;;;;;;6.30;4.57;;;;;;;;;;5071693;28;20479;-61
2021/04/14 09:01:37;;;;;;;11.73;4.50;;;;;;;;;;5081371;28;20483;-55
2021/04/14 09:04:06;;;;;;;9.00;5.40;;;;;;;;;;5083010;28;20457;-58
2021/04/14 09:06:38;;;;;;;10.90;5.10;;;;;;;;;;5072576;28;20476;-60
2021/04/14 09:09:15;;;;;;;10.90;6.53;;;;;;;;;;5080740;28;20448;-59
2021/04/14 09:11:43;;;;;;;13.10;5.90;;;;;;;;;;5092383;28;20436;-56
2021/04/14 09:14:21;;;;;;;8.07;6.32;;;;;;;;;;5092281;28;20202;-61
2021/04/14 09:16:50;;;;;;;17.15;7.00;;;;;;;;;;5110263;28;20241;-57
2021/04/14 09:19:28;;;;;;;11.40;5.80;;;;;;;;;;5093334;28;20460;-52
2021/04/14 09:21:57;;;;;;;14.90;5.60;;;;;;;;;;5087776;28;20234;-55
2021/04/14 09:27:35;;;;;;;18.92;7.25;;;;;;;;;;5080519;28;20225;-58
2021/04/14 09:30:09;;;;;;;11.93;6.53;;;;;;;;;;5074423;28;20225;-54
2021/04/14 09:32:59;;;;;;;10.25;6.75;;;;;;;;;;5074348;28;20214;-57
2021/04/14 09:35:54;;;;;;;13.85;7.40;;;;;;;;;;5087351;28;20496;-56
2021/04/14 09:38:32;;;;;;;11.85;7.57;;;;;;;;;;5036593;28;20211;-52
2021/04/14 09:41:08;;;;;;;11.30;7.53;;;;;;;;;;5035929;28;20512;-54
2021/04/14 09:43:51;;;;;;;11.00;8.00;;;;;;;;;;5074201;28;20232;-58
2021/04/14 09:46:30;;;;;;;13.63;8.95;;;;;;;;;;5098041;28;20249;-53
2021/04/14 09:49:13;;;;;;;18.10;10.27;;;;;;;;;;5113714;28;20197;-55
2021/04/14 09:51:45;;;;;;;13.32;9.25;;;;;;;;;;5077805;28;20205;-58
2021/04/14 09:54:16;;;;;;;13.73;9.45;;;;;;;;;;5106555;28;20189;-57
2021/04/14 09:57:07;;;;;;;15.80;9.80;;;;;;;;;;5092358;28;20221;-60
2021/04/14 09:59:37;;;;;;;11.85;10.07;;;;;;;;;;5087886;28;20202;-57
2021/04/14 10:02:08;;;;;;;18.20;11.38;;;;;;;;;;5097816;28;20248;-56
2021/04/14 10:04:37;;;;;;;17.15;10.65;;;;;;;;;;5108123;28;20209;-57
2021/04/14 10:07:05;;;;;;;13.05;9.95;;;;;;;;;;5097026;28;20253;-54
2021/04/14 10:09:38;;;;;;;14.80;10.13;;;;;;;;;;5094778;28;20269;-52
2021/04/14 10:12:43;;;;;;;13.98;9.15;;;;;;;;;;5096129;28;20217;-57
2021/04/14 10:15:14;;;;;;;12.05;8.85;;;;;;;;;;5090031;28;20237;-53
2021/04/14 10:17:41;;;;;;;17.67;8.88;;;;;;;;;;5091369;28;20238;-58
2021/04/14 10:20:14;;;;;;;14.57;8.63;;;;;;;;;;5106973;28;20193;-57
2021/04/14 10:22:44;;;;;;;14.43;9.57;;;;;;;;;;5089484;28;20293;-56
2021/04/14 10:25:17;;;;;;;15.50;9.25;;;;;;;;;;5094000;28;20412;-54
2021/04/14 10:28:07;;;;;;;13.65;8.80;;;;;;;;;;5081266;28;20198;-56
2021/04/14 10:30:36;;;;;;;16.20;9.63;;;;;;;;;;5092827;28;20359;-54
2021/04/14 10:33:03;;;;;;;15.35;9.75;;;;;;;;;;5095216;28;20209;-61
2021/04/14 10:35:31;;;;;;;14.70;9.07;;;;;;;;;;5090946;28;20229;-60
2021/04/14 10:37:58;;;;;;;15.10;9.17;;;;;;;;;;5092205;28;20282;-56
2021/04/14 10:40:36;;;;;;;14.03;11.23;;;;;;;;;;5094555;28;20436;-55
2021/04/14 10:43:19;;;;;;;15.60;10.15;;;;;;;;;;5097611;28;20512;-54
2021/04/14 10:45:57;;;;;;;13.70;9.03;;;;;;;;;;5093655;28;20217;-58
2021/04/14 10:48:43;;;;;;;16.83;10.25;;;;;;;;;;5092259;28;20526;-57
2021/04/14 10:51:12;;;;;;;15.37;10.87;;;;;;;;;;5089395;28;20213;-57
2021/04/14 10:53:42;;;;;;;12.48;9.35;;;;;;;;;;5095723;28;20468;-57
2021/04/14 10:56:26;;;;;;;14.70;9.80;;;;;;;;;;5094657;28;20269;-55
2021/04/14 10:58:53;;;;;;;18.55;10.52;;;;;;;;;;5071237;28;20540;-58
2021/04/14 11:01:31;;;;;;;15.10;9.70;;;;;;;;;;5072102;28;20203;-55
2021/04/14 11:04:06;;;;;;;14.67;10.17;;;;;;;;;;5072963;28;20459;-57
2021/04/14 11:06:35;;;;;;;12.77;9.73;;;;;;;;;;5082709;28;20452;-57
2021/04/14 11:09:19;;;;;;;14.13;9.75;;;;;;;;;;5093290;28;20198;-55
2021/04/14 11:11:50;;;;;;;15.95;10.40;;;;;;;;;;5075349;28;20215;-62
2021/04/14 11:14:19;;;;;;;14.02;10.02;;;;;;;;;;5075362;28;20214;-61
2021/04/14 11:17:06;;;;;;;14.38;9.35;;;;;;;;;;5074529;28;20238;-55
2021/04/14 11:19:34;;;;;;;13.80;9.50;;;;;;;;;;5070399;28;20206;-57
2021/04/14 11:22:04;;;;;;;15.32;10.18;;;;;;;;;;5077977;28;20210;-59
2021/04/14 11:24:53;;;;;;;30.15;15.77;;;;;;;;;;5085490;28;20210;-52
2021/04/14 11:27:23;;;;;;;11.65;9.60;;;;;;;;;;5060947;28;20194;-60
2021/04/14 11:30:00;;;;;;;16.20;9.50;;;;;;;;;;5074227;28;20187;-58
2021/04/14 11:32:27;;;;;;;13.17;8.57;;;;;;;;;;5074868;28;20508;-57
2021/04/14 11:34:57;;;;;;;15.03;9.70;;;;;;;;;;5068291;28;20457;-62
2021/04/14 11:37:29;;;;;;;9.70;7.70;;;;;;;;;;5074243;28;20497;-60
2021/04/14 11:42:46;;;;;;;12.97;9.00;;;;;;;;;;5051093;28;20470;-50
2021/04/14 11:45:25;;;;;;;13.70;9.23;;;;;;;;;;5063350;28;20484;-60
2021/04/14 11:48:14;;;;;;;10.60;8.70;;;;;;;;;;5073319;28;20516;-61
2021/04/14 11:50:44;;;;;;;11.37;9.10;;;;;;;;;;5065414;28;20513;-56
2021/04/14 11:53:30;;;;;;;10.60;8.63;;;;;;;;;;5065459;28;20465;-57
2021/04/14 11:55:57;;;;;;;14.80;10.90;;;;;;;;;;5068629;28;20473;-55
2021/04/14 11:58:40;;;;;;;20.87;10.70;;;;;;;;;;5071924;28;20535;-56
2021/04/14 12:01:23;;;;;;;11.23;8.27;;;;;;;;;;5077842;28;20457;-53
2021/04/14 12:03:50;;;;;;;10.60;6.50;;;;;;;;;;5078399;28;20491;-55
2021/04/14 12:06:17;;;;;;;10.83;7.37;;;;;;;;;;5092995;28;20463;-53
2021/04/14 12:08:46;;;;;;;10.63;6.87;;;;;;;;;;5103696;28;20451;-56
2021/04/14 12:11:37;;;;;;;10.37;7.07;;;;;;;;;;5106161;28;20464;-58
2021/04/14 12:14:13;;;;;;;9.63;7.00;;;;;;;;;;5093853;28;20471;-53
2021/04/14 12:16:40;;;;;;;9.30;7.32;;;;;;;;;;5092076;28;20297;-57
2021/04/14 12:19:08;;;;;;;10.52;7.68;;;;;;;;;;5087673;28;20209;-55
2021/04/14 12:21:40;;;;;;;12.70;7.88;;;;;;;;;;5085536;28;20202;-55
2021/04/14 12:24:16;;;;;;;9.93;6.55;;;;;;;;;;5073810;28;20237;-59
2021/04/14 12:26:48;;;;;;;6.95;5.55;;;;;;;;;;5076023;28;20221;-59
2021/04/14 12:29:19;;;;;;;8.30;6.45;;;;;;;;;;5074332;28;20266;-58
2021/04/14 12:31:47;;;;;;;8.18;5.90;;;;;;;;;;5093460;28;20253;-60
2021/04/14 12:34:14;;;;;;;8.10;6.80;;;;;;;;;;5093464;28;20213;-59
2021/04/14 12:37:13;;;;;;;17.10;5.80;;;;;;;;;;5092055;28;20218;-54
2021/04/14 12:39:40;;;;;;;9.27;5.95;;;;;;;;;;5082119;28;20194;-57
2021/04/14 12:42:12;;;;;;;7.75;5.88;;;;;;;;;;5091451;28;20237;-56
2021/04/14 12:44:42;;;;;;;7.70;6.10;;;;;;;;;;5089781;28;20229;-57
2021/04/14 12:47:16;;;;;;;12.03;6.23;;;;;;;;;;5098047;28;20483;-53
2021/04/14 12:49:44;;;;;;;7.60;4.90;;;;;;;;;;5093308;28;20466;-58
2021/04/14 12:52:21;;;;;;;7.30;5.47;;;;;;;;;;5094540;28;20428;-56
2021/04/14 12:54:49;;;;;;;12.70;6.10;;;;;;;;;;5082815;28;20443;-54
2021/04/14 12:57:19;;;;;;;8.60;5.70;;;;;;;;;;5112308;28;20483;-58
2021/04/14 12:59:50;;;;;;;8.63;6.60;;;;;;;;;;5091158;28;20543;-57
2021/04/14 13:02:32;;;;;;;8.30;6.90;;;;;;;;;;5094396;28;20444;-58
2021/04/14 13:05:02;;;;;;;9.67;6.67;;;;;;;;;;5094362;28;20481;-53
2021/04/14 13:07:36;;;;;;;7.80;5.50;;;;;;;;;;5092799;28;20452;-61
2021/04/14 13:10:09;;;;;;;13.27;6.50;;;;;;;;;;5091972;28;20452;-57
2021/04/14 13:15:25;;;;;;;9.07;5.97;;;;;;;;;;5081270;28;20529;-58
2021/04/14 13:17:54;;;;;;;14.60;6.77;;;;;;;;;;5077533;28;20485;-59
2021/04/14 13:20:21;;;;;;;6.70;5.70;;;;;;;;;;5101677;28;20469;-59
2021/04/14 13:22:52;;;;;;;6.60;5.00;;;;;;;;;;5091248;28;20432;-56
2021/04/14 13:25:21;;;;;;;10.57;6.60;;;;;;;;;;5097672;28;20459;-55
2021/04/14 13:27:51;;;;;;;6.67;3.93;;;;;;;;;;5100516;28;20638;-54
2021/04/14 13:30:24;;;;;;;11.45;4.32;;;;;;;;;;5098501;28;20475;-58
2021/04/14 13:32:58;;;;;;;7.65;4.05;;;;;;;;;;5093542;28;20204;-53
2021/04/14 13:35:27;;;;;;;7.32;5.20;;;;;;;;;;5079043;28;20209;-60
2021/04/14 13:38:16;;;;;;;13.88;9.63;;;;;;;;;;5077870;28;20285;-56
2021/04/14 13:40:46;;;;;;;12.55;8.95;;;;;;;;;;5088143;28;20237;-54
2021/04/14 13:43:19;;;;;;;17.20;11.02;;;;;;;;;;5098598;28;20197;-59
2021/04/14 13:45:55;;;;;;;14.85;9.95;;;;;;;;;;5098668;28;20202;-61
2021/04/14 13:48:24;;;;;;;20.83;11.27;;;;;;;;;;5098519;28;20206;-58
2021/04/14 13:50:55;;;;;;;17.05;11.15;;;;;;;;;;5093551;28;20201;-57
2021/04/14 13:53:28;;;;;;;13.93;10.68;;;;;;;;;;5096735;28;20217;-56
2021/04/14 13:56:16;;;;;;;14.35;10.43;;;;;;;;;;5111027;28;20220;-53
2021/04/14 13:59:00;;;;;;;14.35;9.10;;;;;;;;;;5107698;28;20221;-53
2021/04/14 14:01:34;;;;;;;16.10;8.57;;;;;;;;;;5098895;28;20209;-62
2021/04/14 14:04:03;;;;;;;9.75;7.38;;;;;;;;;;5098837;28;20270;-57
2021/04/14 14:06:36;;;;;;;9.77;7.40;;;;;;;;;;5098967;28;20221;-54
2021/04/14 14:09:05;;;;;;;10.23;7.05;;;;;;;;;;5098547;28;20220;-54
2021/04/14 14:11:36;;;;;;;16.77;7.60;;;;;;;;;;5110147;28;20201;-57
2021/04/14 14:14:04;;;;;;;10.35;8.48;;;;;;;;;;5118718;28;20268;-57
2021/04/14 14:16:34;;;;;;;11.35;7.18;;;;;;;;;;5119025;28;20225;-60
2021/04/14 14:19:16;;;;;;;8.15;5.95;;;;;;;;;;5115040;28;20193;-58
2021/04/14 14:21:43;;;;;;;9.30;6.47;;;;;;;;;;5098488;28;20224;-62
2021/04/14 14:24:11;;;;;;;7.07;5.20;;;;;;;;;;5098693;28;20204;-56
2021/04/14 14:26:41;;;;;;;7.88;5.45;;;;;;;;;;5099212;28;20296;-53
2021/04/14 14:29:36;;;;;;;8.10;4.90;;;;;;;;;;5097194;28;20174;-56
2021/04/14 14:32:05;;;;;;;9.77;4.78;;;;;;;;;;5093415;28;20198;-54
2021/04/14 14:34:34;;;;;;;6.30;5.03;;;;;;;;;;5096868;28;20206;-59
2021/04/14 14:37:34;;;;;;;6.32;5.18;;;;;;;;;;5113337;28;20213;-52
2021/04/14 14:40:05;;;;;;;8.68;5.40;;;;;;;;;;5117471;28;20231;-56
2021/04/14 14:42:35;;;;;;;5.90;4.35;;;;;;;;;;5102183;28;20251;-53
2021/04/14 14:45:33;;;;;;;5.82;3.72;;;;;;;;;;5098167;28;20194;-54
2021/04/14 14:48:05;;;;;;;6.15;3.75;;;;;;;;;;5075671;28;20250;-56
2021/04/14 14:50:39;;;;;;;8.13;4.07;;;;;;;;;;5067585;28;20226;-57
2021/04/14 14:53:25;;;;;;;5.95;4.22;;;;;;;;;;5088527;28;20211;-56
2021/04/14 14:55:56;;;;;;;12.43;5.68;;;;;;;;;;5084859;28;20524;-62
2021/04/14 14:58:26;;;;;;;5.75;4.90;;;;;;;;;;5082324;28;20240;-59
2021/04/14 15:00:59;;;;;;;6.05;4.38;;;;;;;;;;5097383;28;20212;-54
2021/04/14 15:03:26;;;;;;;9.35;6.13;;;;;;;;;;5081370;28;20218;-57
2021/04/14 15:06:01;;;;;;;7.85;5.70;;;;;;;;;;5091293;28;20220;-52
2021/04/14 15:08:28;;;;;;;9.95;6.53;;;;;;;;;;5096869;28;20204;-59
2021/04/14 15:10:56;;;;;;;7.85;5.90;;;;;;;;;;5084496;28;20215;-53
2021/04/14 15:13:24;;;;;;;9.02;5.70;;;;;;;;;;5081278;28;20221;-60
2021/04/14 15:15:52;;;;;;;8.38;6.40;;;;;;;;;;5084279;28;20224;-60
2021/04/14 15:18:45;;;;;;;12.35;6.55;;;;;;;;;;5108232;28;20566;-60
2021/04/14 15:21:14;;;;;;;7.38;5.13;;;;;;;;;;5086622;28;20189;-53
2021/04/14 15:23:42;;;;;;;7.55;5.28;;;;;;;;;;5113979;28;20201;-59
2021/04/14 15:26:32;;;;;;;13.27;6.13;;;;;;;;;;5109625;28;20213;-58
2021/04/14 15:29:06;;;;;;;;;;;;;;;;;;;;;
2021/04/14 15:31:34;;;;;;;9.18;6.30;;;;;;;;;;5094260;28;20236;-60
2021/04/14 15:34:03;;;;;;;7.85;6.40;;;;;;;;;;5095902;28;20183;-60